createdAt,value
2023-01-26T00:01:24.598Z,21.43
2023-01-26T00:03:52.113Z,21.00
2023-01-26T00:06:21.650Z,21.47
2023-01-26T00:08:51.469Z,19.77
2023-01-26T00:11:24.502Z,20.93
2023-01-26T00:13:51.737Z,21.57
2023-01-26T00:16:19.948Z,21.30
2023-01-26T00:18:47.336Z,22.87
2023-01-26T00:21:20.167Z,20.90
2023-01-26T00:23:48.755Z,22.10
2023-01-26T00:26:21.752Z,19.73
2023-01-26T00:28:48.803Z,23.37
2023-01-26T00:31:27.045Z,21.37
2023-01-26T00:33:56.009Z,21.33
2023-01-26T00:36:23.798Z,20.57
2023-01-26T00:38:51.611Z,21.57
2023-01-26T00:41:37.627Z,23.40
2023-01-26T00:44:04.733Z,22.13
2023-01-26T00:46:31.775Z,22.07
2023-01-26T00:49:01.114Z,25.33
2023-01-26T00:51:28.317Z,23.40
2023-01-26T00:53:56.599Z,24.23
2023-01-26T00:56:23.927Z,24.23
2023-01-26T00:58:51.598Z,26.00
2023-01-26T01:01:18.586Z,23.47
2023-01-26T01:03:45.958Z,22.10
2023-01-26T01:06:12.833Z,22.77
2023-01-26T01:08:39.611Z,25.03
2023-01-26T01:11:10.063Z,22.13
2023-01-26T01:13:37.702Z,23.87
2023-01-26T01:16:09.970Z,24.07
2023-01-26T01:18:37.960Z,24.90
2023-01-26T01:21:09.430Z,25.03
2023-01-26T01:23:37.167Z,23.80
2023-01-26T01:26:05.373Z,19.63
2023-01-26T01:28:34.003Z,21.07
2023-01-26T01:31:05.583Z,21.50
2023-01-26T01:33:32.749Z,21.63
2023-01-26T01:36:02.349Z,21.43
2023-01-26T01:38:30.863Z,21.17
2023-01-26T01:40:58.263Z,18.67
2023-01-26T01:43:26.513Z,18.70
2023-01-26T01:45:54.789Z,18.57
2023-01-26T01:48:27.399Z,18.73
2023-01-26T01:50:58.827Z,18.93
2023-01-26T01:53:36.110Z,17.73
2023-01-26T01:56:10.175Z,15.47
2023-01-26T01:58:41.385Z,16.93
2023-01-26T02:01:09.448Z,16.80
2023-01-26T02:03:37.416Z,15.87
2023-01-26T02:06:39.738Z,15.40
2023-01-26T02:09:08.078Z,16.57
2023-01-26T02:11:40.825Z,15.23
2023-01-26T02:14:11.746Z,15.00
2023-01-26T02:16:40.112Z,15.57
2023-01-26T02:19:16.545Z,16.43
2023-01-26T02:21:46.838Z,17.30
2023-01-26T02:24:41.867Z,14.87
2023-01-26T02:27:08.820Z,17.33
2023-01-26T02:29:35.944Z,15.40
2023-01-26T02:32:03.202Z,14.50
2023-01-26T02:34:30.211Z,16.73
2023-01-26T02:36:58.994Z,14.10
2023-01-26T02:39:46.912Z,16.67
2023-01-26T02:42:34.991Z,16.23
2023-01-26T02:45:02.143Z,14.77
2023-01-26T02:47:30.124Z,15.20
2023-01-26T02:49:58.737Z,14.87
2023-01-26T02:52:31.021Z,15.57
2023-01-26T02:55:21.954Z,14.50
2023-01-26T02:57:51.360Z,16.50
2023-01-26T03:00:24.061Z,15.47
2023-01-26T03:02:55.435Z,18.03
2023-01-26T03:05:24.416Z,17.70
2023-01-26T03:07:52.616Z,14.77
2023-01-26T03:10:24.242Z,16.57
2023-01-26T03:12:52.366Z,18.27
2023-01-26T03:15:37.742Z,18.03
2023-01-26T03:18:26.710Z,17.67
2023-01-26T03:21:12.513Z,19.37
2023-01-26T03:23:58.229Z,18.57
2023-01-26T03:26:45.280Z,17.67
2023-01-26T03:29:12.689Z,18.10
2023-01-26T03:31:41.539Z,17.00
2023-01-26T03:34:08.537Z,18.53
2023-01-26T03:36:35.552Z,19.13
2023-01-26T03:39:07.239Z,16.67
2023-01-26T03:41:53.388Z,20.37
2023-01-26T03:44:39.833Z,19.30
2023-01-26T03:47:25.719Z,21.07
2023-01-26T03:50:11.505Z,20.60
2023-01-26T03:52:57.409Z,19.43
2023-01-26T03:55:43.162Z,17.40
2023-01-26T03:58:10.340Z,18.40
2023-01-26T04:00:38.565Z,19.67
2023-01-26T04:03:24.265Z,18.50
2023-01-26T04:06:16.385Z,17.97
2023-01-26T04:08:47.960Z,17.90
2023-01-26T04:11:14.949Z,18.13
2023-01-26T04:14:00.690Z,18.50
2023-01-26T04:16:51.652Z,16.80
2023-01-26T04:19:37.183Z,20.87
2023-01-26T04:22:04.298Z,17.30
2023-01-26T04:24:34.477Z,18.47
2023-01-26T04:27:01.375Z,20.13
2023-01-26T04:29:35.671Z,19.20
2023-01-26T04:32:02.622Z,17.87
2023-01-26T04:34:29.530Z,18.17
2023-01-26T04:36:57.435Z,18.43
2023-01-26T04:39:29.659Z,19.63
2023-01-26T04:41:57.358Z,17.93
2023-01-26T04:44:26.279Z,18.10
2023-01-26T04:46:53.400Z,19.23
2023-01-26T04:49:21.278Z,19.20
2023-01-26T04:51:48.655Z,17.20
2023-01-26T04:54:16.789Z,15.10
2023-01-26T04:56:45.235Z,14.77
2023-01-26T04:59:12.663Z,15.67
2023-01-26T05:01:41.917Z,15.03
2023-01-26T05:04:11.421Z,13.83
2023-01-26T05:06:42.224Z,17.03
2023-01-26T05:09:10.382Z,10.77
2023-01-26T05:11:38.938Z,12.20
2023-01-26T05:14:32.317Z,12.57
2023-01-26T05:17:19.983Z,13.57
2023-01-26T05:19:46.976Z,12.40
2023-01-26T05:22:31.940Z,10.10
2023-01-26T05:25:31.330Z,10.60
2023-01-26T05:28:03.963Z,12.50
2023-01-26T05:30:31.615Z,12.53
2023-01-26T05:33:02.544Z,11.40
2023-01-26T05:35:29.499Z,11.37
2023-01-26T05:37:56.469Z,12.33
2023-01-26T05:40:25.012Z,9.53
2023-01-26T05:42:54.052Z,12.00
2023-01-26T05:45:40.580Z,10.27
2023-01-26T05:48:07.501Z,9.37
2023-01-26T05:50:34.406Z,10.60
2023-01-26T05:53:15.868Z,12.60
2023-01-26T05:55:43.675Z,8.83
2023-01-26T05:58:11.298Z,12.87
2023-01-26T06:00:39.379Z,11.30
2023-01-26T06:03:11.805Z,15.53
2023-01-26T06:05:39.016Z,9.90
2023-01-26T06:08:17.167Z,4.83
2023-01-26T06:11:10.379Z,9.73
2023-01-26T06:13:55.908Z,12.73
2023-01-26T06:16:27.406Z,10.43
2023-01-26T06:18:56.407Z,12.93
2023-01-26T06:21:23.258Z,11.50
2023-01-26T06:23:50.265Z,12.63
2023-01-26T06:26:17.428Z,8.87
2023-01-26T06:28:45.520Z,11.57
2023-01-26T06:31:14.561Z,8.80
2023-01-26T06:33:42.854Z,10.53
2023-01-26T06:36:15.989Z,9.73
2023-01-26T06:38:49.591Z,13.17
2023-01-26T06:41:18.109Z,9.03
2023-01-26T06:43:47.846Z,7.90
2023-01-26T06:46:16.885Z,10.53
2023-01-26T06:48:45.961Z,8.40
2023-01-26T06:51:15.904Z,10.40
2023-01-26T06:53:54.822Z,8.67
2023-01-26T06:56:29.090Z,13.80
2023-01-26T06:59:28.561Z,11.57
2023-01-26T07:02:22.119Z,11.03
2023-01-26T07:04:51.305Z,11.47
2023-01-26T07:07:18.271Z,15.10
2023-01-26T07:09:45.146Z,11.63
2023-01-26T07:12:12.640Z,9.23
2023-01-26T07:14:39.528Z,10.50
2023-01-26T07:17:06.522Z,11.57
2023-01-26T07:19:34.330Z,8.50
2023-01-26T07:22:01.902Z,8.73
2023-01-26T07:24:29.147Z,10.17
2023-01-26T07:26:57.190Z,9.03
2023-01-26T07:29:24.118Z,11.03
2023-01-26T07:31:51.718Z,12.73
2023-01-26T07:34:19.201Z,12.27
2023-01-26T07:36:47.142Z,10.43
2023-01-26T07:39:13.980Z,10.90
2023-01-26T07:41:41.287Z,11.07
2023-01-26T07:44:46.932Z,13.13
2023-01-26T07:47:14.973Z,13.37
2023-01-26T07:49:41.969Z,10.63
2023-01-26T07:52:09.256Z,12.37
2023-01-26T07:54:36.485Z,9.03
2023-01-26T07:57:03.451Z,9.23
2023-01-26T07:59:30.483Z,10.73
2023-01-26T08:01:57.783Z,10.20
2023-01-26T08:04:24.773Z,8.63
2023-01-26T08:06:52.724Z,9.63
2023-01-26T08:09:20.370Z,10.13
2023-01-26T08:11:47.191Z,6.20
2023-01-26T08:14:14.235Z,8.47
2023-01-26T08:16:41.443Z,7.17
2023-01-26T08:19:08.540Z,8.40
2023-01-26T08:21:35.881Z,11.53
2023-01-26T08:24:03.779Z,9.63
2023-01-26T08:26:30.699Z,9.47
2023-01-26T08:28:57.814Z,4.53
2023-01-26T08:31:25.609Z,8.03
2023-01-26T08:33:53.381Z,10.07
2023-01-26T08:36:22.787Z,11.60
2023-01-26T08:38:51.436Z,11.63
2023-01-26T08:41:19.191Z,8.73
2023-01-26T08:43:47.192Z,10.13
2023-01-26T08:46:14.408Z,8.90
2023-01-26T08:48:41.401Z,9.03
2023-01-26T08:51:08.932Z,13.83
2023-01-26T08:53:37.412Z,15.57
2023-01-26T08:56:06.919Z,15.13
2023-01-26T08:58:34.586Z,25.33
2023-01-26T09:01:11.287Z,11.10
2023-01-26T09:03:38.273Z,9.57
2023-01-26T09:06:07.178Z,11.23
2023-01-26T09:08:34.208Z,8.20
2023-01-26T09:11:01.204Z,9.83
2023-01-26T09:13:28.402Z,8.77
2023-01-26T09:15:55.405Z,12.70
2023-01-26T09:18:22.397Z,10.63
2023-01-26T09:20:51.421Z,13.23
2023-01-26T09:23:18.527Z,8.17
2023-01-26T09:25:45.559Z,11.97
2023-01-26T09:28:12.705Z,9.20
2023-01-26T09:30:39.736Z,15.20
2023-01-26T09:33:07.369Z,12.87
2023-01-26T09:35:34.480Z,8.30
2023-01-26T09:38:01.552Z,13.47
2023-01-26T09:40:42.056Z,15.27
2023-01-26T09:43:24.246Z,14.57
2023-01-26T09:45:58.814Z,12.23
2023-01-26T09:48:51.203Z,13.37
2023-01-26T09:51:26.821Z,14.93
2023-01-26T09:54:01.811Z,10.57
2023-01-26T09:56:33.028Z,8.33
2023-01-26T09:59:31.996Z,8.53
2023-01-26T10:02:36.353Z,11.20
2023-01-26T10:05:14.698Z,10.27
2023-01-26T10:07:45.647Z,10.60
2023-01-26T10:10:26.486Z,8.07
2023-01-26T10:12:54.967Z,9.07
2023-01-26T10:15:31.422Z,7.17
2023-01-26T10:18:04.843Z,9.90
2023-01-26T10:20:33.608Z,10.73
2023-01-26T10:23:30.949Z,8.43
2023-01-26T10:26:22.363Z,6.77
2023-01-26T10:28:53.354Z,9.53
2023-01-26T10:31:32.726Z,8.83
2023-01-26T10:34:03.417Z,9.73
2023-01-26T10:36:31.995Z,11.77
2023-01-26T10:39:07.580Z,7.27
2023-01-26T10:41:34.511Z,5.20
2023-01-26T10:44:05.008Z,9.17
2023-01-26T10:46:40.737Z,9.83
2023-01-26T10:49:14.538Z,9.70
2023-01-26T10:51:47.475Z,6.73
2023-01-26T10:54:28.249Z,7.63
2023-01-26T10:56:59.517Z,7.60
2023-01-26T10:59:35.416Z,8.67
2023-01-26T11:02:18.086Z,6.73
2023-01-26T11:05:03.151Z,7.93
2023-01-26T11:08:00.900Z,11.47
2023-01-26T11:10:39.574Z,8.37
2023-01-26T11:13:21.811Z,8.97
2023-01-26T11:16:00.865Z,8.27
2023-01-26T11:18:46.093Z,9.20
2023-01-26T11:21:28.986Z,10.00
2023-01-26T11:24:10.800Z,8.00
2023-01-26T11:27:01.989Z,10.57
2023-01-26T11:29:45.147Z,8.57
2023-01-26T11:32:17.913Z,10.80
2023-01-26T11:34:51.683Z,10.73
2023-01-26T11:37:37.377Z,9.00
2023-01-26T11:40:13.473Z,11.23
2023-01-26T11:42:59.397Z,9.23
2023-01-26T11:45:32.384Z,7.70
2023-01-26T11:48:17.792Z,8.97
2023-01-26T11:50:54.489Z,9.80
2023-01-26T11:53:50.242Z,9.77
2023-01-26T11:56:30.771Z,9.00
2023-01-26T11:59:15.884Z,7.67
2023-01-26T12:01:57.246Z,13.27
2023-01-26T12:04:24.501Z,7.70
2023-01-26T12:07:07.139Z,7.33
2023-01-26T12:09:43.504Z,7.70
2023-01-26T12:12:17.374Z,6.73
2023-01-26T12:15:14.795Z,6.83
2023-01-26T12:17:54.183Z,3.70
2023-01-26T12:20:40.166Z,8.20
2023-01-26T12:23:21.905Z,3.97
2023-01-26T12:26:07.735Z,7.47
2023-01-26T12:28:44.066Z,6.17
2023-01-26T12:31:25.393Z,6.23
2023-01-26T12:33:56.196Z,10.30
2023-01-26T12:36:54.087Z,6.07
2023-01-26T12:39:51.276Z,12.63
2023-01-26T12:42:35.998Z,9.83
2023-01-26T12:45:12.722Z,7.13
2023-01-26T12:47:39.753Z,8.50
2023-01-26T12:50:11.655Z,10.27
2023-01-26T12:52:48.230Z,9.07
2023-01-26T12:55:27.801Z,6.37
2023-01-26T12:58:01.027Z,6.50
2023-01-26T13:00:36.662Z,9.10
2023-01-26T13:03:07.315Z,6.37
2023-01-26T13:05:36.128Z,8.67
2023-01-26T13:08:32.001Z,5.60
2023-01-26T13:11:01.243Z,8.70
2023-01-26T13:13:30.065Z,10.00
2023-01-26T13:16:15.886Z,4.63
2023-01-26T13:18:52.898Z,7.30
2023-01-26T13:21:39.800Z,8.70
2023-01-26T13:24:18.671Z,4.40
2023-01-26T13:26:49.229Z,6.17
2023-01-26T13:29:26.031Z,5.57
2023-01-26T13:32:09.552Z,5.27
2023-01-26T13:34:46.718Z,3.43
2023-01-26T13:37:26.449Z,6.20
2023-01-26T13:39:58.988Z,6.50
2023-01-26T13:42:35.647Z,6.40
2023-01-26T13:45:14.440Z,3.50
2023-01-26T13:47:45.034Z,2.53
2023-01-26T13:50:31.073Z,7.20
2023-01-26T13:52:58.961Z,4.27
2023-01-26T13:55:30.421Z,5.97
2023-01-26T13:58:18.437Z,7.50
2023-01-26T14:01:06.758Z,4.50
2023-01-26T14:03:34.311Z,8.37
2023-01-26T14:06:06.486Z,8.20
2023-01-26T14:08:33.716Z,6.00
2023-01-26T14:11:03.450Z,5.97
2023-01-26T14:13:37.651Z,5.27
2023-01-26T14:16:07.298Z,6.67
2023-01-26T14:18:34.668Z,5.60
2023-01-26T14:21:06.971Z,7.27
2023-01-26T14:23:36.742Z,7.70
2023-01-26T14:26:07.191Z,6.97
2023-01-26T14:28:37.413Z,5.07
2023-01-26T14:31:13.218Z,9.37
2023-01-26T14:33:40.407Z,6.23
2023-01-26T14:36:14.037Z,6.30
2023-01-26T14:38:44.491Z,7.77
2023-01-26T14:41:25.941Z,5.37
2023-01-26T14:43:58.569Z,7.80
2023-01-26T14:46:32.141Z,9.93
2023-01-26T14:49:13.088Z,8.63
2023-01-26T14:51:44.160Z,5.50
2023-01-26T14:54:20.277Z,10.50
2023-01-26T14:56:48.954Z,12.67
2023-01-26T14:59:24.038Z,11.87
2023-01-26T15:01:52.151Z,7.43
2023-01-26T15:04:31.362Z,11.03
2023-01-26T15:07:22.173Z,10.90
2023-01-26T15:09:53.643Z,11.53
2023-01-26T15:12:22.497Z,9.17
2023-01-26T15:14:55.825Z,8.67
2023-01-26T15:17:31.409Z,10.90
2023-01-26T15:19:58.413Z,10.23
2023-01-26T15:22:26.727Z,10.33
2023-01-26T15:25:01.450Z,9.63
2023-01-26T15:27:33.864Z,16.70
2023-01-26T15:30:02.021Z,10.77
2023-01-26T15:32:32.567Z,7.77
2023-01-26T15:35:21.543Z,9.53
2023-01-26T15:37:48.812Z,9.40
2023-01-26T15:40:15.871Z,8.40
2023-01-26T15:42:42.763Z,9.03
2023-01-26T15:45:23.436Z,8.23
2023-01-26T15:47:51.201Z,6.43
2023-01-26T15:50:27.549Z,8.27
2023-01-26T15:52:55.813Z,8.33
2023-01-26T15:55:27.323Z,8.13
2023-01-26T15:57:54.169Z,10.97
2023-01-26T16:00:23.826Z,5.47
2023-01-26T16:02:51.640Z,5.57
2023-01-26T16:05:21.771Z,7.13
2023-01-26T16:07:48.981Z,6.87
2023-01-26T16:10:18.098Z,7.57
2023-01-26T16:12:47.545Z,6.80
2023-01-26T16:15:37.818Z,6.77
2023-01-26T16:18:04.851Z,9.67
2023-01-26T16:20:31.976Z,8.37
2023-01-26T16:22:59.044Z,7.30
2023-01-26T16:25:28.334Z,11.07
2023-01-26T16:27:56.379Z,7.53
2023-01-26T16:30:23.388Z,9.90
2023-01-26T16:32:52.174Z,6.93
2023-01-26T16:35:22.039Z,9.00
2023-01-26T16:37:49.172Z,11.73
2023-01-26T16:40:18.589Z,9.20
2023-01-26T16:42:48.829Z,9.47
2023-01-26T16:45:29.700Z,9.80
2023-01-26T16:47:57.810Z,6.90
2023-01-26T16:50:26.096Z,7.27
2023-01-26T16:52:53.544Z,8.83
2023-01-26T16:55:21.722Z,11.87
2023-01-26T16:57:50.074Z,7.80
2023-01-26T17:00:20.782Z,9.37
2023-01-26T17:02:51.350Z,10.83
2023-01-26T17:05:21.499Z,7.97
2023-01-26T17:07:51.223Z,11.07
2023-01-26T17:10:18.971Z,8.60
2023-01-26T17:12:46.785Z,10.50
2023-01-26T17:15:14.160Z,7.83
2023-01-26T17:17:42.736Z,8.87
2023-01-26T17:20:19.193Z,8.57
2023-01-26T17:22:47.969Z,8.37
2023-01-26T17:25:19.129Z,9.43
2023-01-26T17:27:50.088Z,6.03
2023-01-26T17:30:18.168Z,8.87
2023-01-26T17:32:45.599Z,8.77
2023-01-26T17:35:12.962Z,8.90
2023-01-26T17:37:40.293Z,9.27
2023-01-26T17:40:09.205Z,11.60
2023-01-26T17:42:36.709Z,9.87
2023-01-26T17:45:04.429Z,5.30
2023-01-26T17:47:34.960Z,8.17
2023-01-26T17:50:02.262Z,10.77
2023-01-26T17:52:31.345Z,9.73
2023-01-26T17:54:59.252Z,9.33
2023-01-26T17:57:26.308Z,8.13
2023-01-26T17:59:53.296Z,5.60
2023-01-26T18:02:21.309Z,12.03
2023-01-26T18:04:50.170Z,4.87
2023-01-26T18:07:17.106Z,10.63
2023-01-26T18:09:44.203Z,11.00
2023-01-26T18:12:11.494Z,12.67
2023-01-26T18:14:38.449Z,7.43
2023-01-26T18:17:05.556Z,9.13
2023-01-26T18:19:32.554Z,5.90
2023-01-26T18:21:59.540Z,12.27
2023-01-26T18:24:26.820Z,9.93
2023-01-26T18:26:53.950Z,8.87
2023-01-26T18:29:21.711Z,7.47
2023-01-26T18:31:48.823Z,12.20
2023-01-26T18:34:16.130Z,8.77
2023-01-26T18:36:43.185Z,9.37
2023-01-26T18:39:13.623Z,8.07
2023-01-26T18:41:41.189Z,7.50
2023-01-26T18:44:08.403Z,8.43
2023-01-26T18:46:35.717Z,14.67
2023-01-26T18:49:03.854Z,11.83
2023-01-26T18:51:33.224Z,6.97
2023-01-26T18:54:00.329Z,10.43
2023-01-26T18:56:27.955Z,7.67
2023-01-26T18:58:55.180Z,8.40
2023-01-26T19:01:23.019Z,10.47
2023-01-26T19:03:55.462Z,12.60
2023-01-26T19:06:25.216Z,8.73
2023-01-26T19:08:58.931Z,11.47
2023-01-26T19:11:30.993Z,9.03
2023-01-26T19:13:58.904Z,13.23
2023-01-26T19:16:26.536Z,8.23
2023-01-26T19:18:55.493Z,11.80
2023-01-26T19:21:27.915Z,13.17
2023-01-26T19:23:57.617Z,7.73
2023-01-26T19:26:28.325Z,8.07
2023-01-26T19:28:55.896Z,9.47
2023-01-26T19:31:23.619Z,6.80
2023-01-26T19:34:13.695Z,9.10
2023-01-26T19:36:40.914Z,8.97
2023-01-26T19:39:07.892Z,7.73
2023-01-26T19:41:35.618Z,9.63
2023-01-26T19:44:02.849Z,8.50
2023-01-26T19:46:29.827Z,10.40
2023-01-26T19:48:57.184Z,7.57
2023-01-26T19:51:26.369Z,9.30
2023-01-26T19:53:59.633Z,10.53
2023-01-26T19:56:29.913Z,11.47
2023-01-26T19:59:00.540Z,10.87
2023-01-26T20:01:29.309Z,5.70
2023-01-26T20:04:00.649Z,6.93
2023-01-26T20:06:30.452Z,7.67
2023-01-26T20:08:57.585Z,6.00
2023-01-26T20:11:26.839Z,7.50
2023-01-26T20:13:59.211Z,6.23
2023-01-26T20:16:30.476Z,5.37
2023-01-26T20:18:58.854Z,10.37
2023-01-26T20:21:27.072Z,8.40
2023-01-26T20:23:55.976Z,9.20
2023-01-26T20:26:24.711Z,7.10
2023-01-26T20:28:52.352Z,6.90
2023-01-26T20:31:21.864Z,5.33
2023-01-26T20:33:52.028Z,7.50
2023-01-26T20:36:21.838Z,8.63
2023-01-26T20:38:50.166Z,8.43
2023-01-26T20:41:20.220Z,7.00
2023-01-26T20:44:03.279Z,8.93
2023-01-26T20:46:34.702Z,6.10
2023-01-26T20:49:02.374Z,6.80
2023-01-26T20:51:34.075Z,8.07
2023-01-26T20:54:02.412Z,8.73
2023-01-26T20:56:29.659Z,4.60
2023-01-26T20:58:57.109Z,6.83
2023-01-26T21:01:25.720Z,8.13
2023-01-26T21:03:53.960Z,10.23
2023-01-26T21:06:24.185Z,9.00
2023-01-26T21:08:55.180Z,6.67
2023-01-26T21:11:24.956Z,5.80
2023-01-26T21:13:54.884Z,6.27
2023-01-26T21:16:23.344Z,4.57
2023-01-26T21:18:51.740Z,4.60
2023-01-26T21:21:20.270Z,8.60
2023-01-26T21:23:48.306Z,6.13
2023-01-26T21:26:26.406Z,5.80
2023-01-26T21:28:56.194Z,5.43
2023-01-26T21:31:25.506Z,3.63
2023-01-26T21:33:53.513Z,6.53
2023-01-26T21:36:22.933Z,6.60
2023-01-26T21:38:52.432Z,3.47
2023-01-26T21:41:43.397Z,9.37
2023-01-26T21:44:13.367Z,4.80
2023-01-26T21:46:40.578Z,6.07
2023-01-26T21:49:08.533Z,6.00
2023-01-26T21:51:54.332Z,5.60
2023-01-26T21:54:22.069Z,5.77
2023-01-26T21:56:49.719Z,5.93
2023-01-26T21:59:18.021Z,5.07
2023-01-26T22:01:47.804Z,5.73
2023-01-26T22:04:18.352Z,4.93
2023-01-26T22:06:45.329Z,4.40
2023-01-26T22:09:14.601Z,4.73
2023-01-26T22:11:41.747Z,9.57
2023-01-26T22:14:14.989Z,7.63
2023-01-26T22:16:42.693Z,4.00
2023-01-26T22:19:10.846Z,4.93
2023-01-26T22:21:38.567Z,5.03
2023-01-26T22:24:07.023Z,5.17
2023-01-26T22:26:34.295Z,4.37
2023-01-26T22:29:01.695Z,5.50
2023-01-26T22:31:30.283Z,3.20
2023-01-26T22:33:59.295Z,6.07
2023-01-26T22:36:27.494Z,5.20
2023-01-26T22:38:54.916Z,9.40
2023-01-26T22:41:25.042Z,5.77
2023-01-26T22:43:54.544Z,3.60
2023-01-26T22:46:23.501Z,5.23
2023-01-26T22:48:51.923Z,5.83
2023-01-26T22:51:25.081Z,3.67
2023-01-26T22:53:54.111Z,7.20
2023-01-26T22:56:21.926Z,3.67
2023-01-26T22:58:58.477Z,6.97
2023-01-26T23:01:32.125Z,3.90
2023-01-26T23:04:00.358Z,7.13
2023-01-26T23:06:28.072Z,6.17
2023-01-26T23:08:55.338Z,6.17
2023-01-26T23:11:28.520Z,7.07
2023-01-26T23:13:57.772Z,6.43
2023-01-26T23:16:25.462Z,5.87
2023-01-26T23:18:54.477Z,4.03
2023-01-26T23:21:22.124Z,4.80
2023-01-26T23:23:50.162Z,6.10
2023-01-26T23:26:17.460Z,8.40
2023-01-26T23:28:44.993Z,5.50
2023-01-26T23:31:14.038Z,7.57
2023-01-26T23:33:41.578Z,6.27
2023-01-26T23:36:11.627Z,7.30
2023-01-26T23:38:38.742Z,5.40
2023-01-26T23:41:05.789Z,6.70
2023-01-26T23:43:32.859Z,7.73
2023-01-26T23:46:00.117Z,5.07
2023-01-26T23:48:27.110Z,4.93
2023-01-26T23:51:05.802Z,6.67
2023-01-26T23:53:33.080Z,7.77
2023-01-26T23:56:03.417Z,6.33
2023-01-26T23:58:30.632Z,5.50
